createdAt,value
2022-11-25T00:00:00.371Z,0.0
2022-11-25T00:05:00.308Z,0.0
2022-11-25T00:10:00.313Z,0.0
2022-11-25T00:15:00.308Z,0.0
2022-11-25T00:20:00.482Z,0.0
2022-11-25T00:25:00.289Z,0.0
2022-11-25T00:30:00.450Z,0.0
2022-11-25T00:35:00.308Z,0.0
2022-11-25T00:40:00.319Z,0.0
2022-11-25T00:45:00.392Z,0.0
2022-11-25T00:50:00.344Z,0.0
2022-11-25T00:55:00.477Z,0.0
2022-11-25T01:00:00.477Z,0.0
2022-11-25T01:05:00.477Z,0.0
2022-11-25T01:10:00.308Z,0.0
2022-11-25T01:15:00.294Z,0.0
2022-11-25T01:20:00.338Z,0.0
2022-11-25T01:25:00.310Z,0.0
2022-11-25T01:30:00.370Z,0.0
2022-11-25T01:35:00.301Z,0.0
2022-11-25T01:40:00.325Z,0.0
2022-11-25T01:45:00.308Z,0.0
2022-11-25T01:50:00.319Z,0.0
2022-11-25T01:55:00.309Z,1.4
2022-11-25T02:00:00.319Z,0.0
2022-11-25T02:05:00.298Z,0.0
2022-11-25T02:10:00.315Z,0.0
2022-11-25T02:15:00.461Z,0.0
2022-11-25T02:20:00.329Z,2.2
2022-11-25T02:25:00.301Z,0.0
2022-11-25T02:30:00.351Z,4.7
2022-11-25T02:35:00.311Z,0.0
2022-11-25T02:40:00.303Z,5.8
2022-11-25T02:45:00.323Z,4.7
2022-11-25T02:50:00.323Z,2.5
2022-11-25T02:55:00.316Z,4.0
2022-11-25T03:00:00.390Z,3.2
2022-11-25T03:05:00.324Z,0.0
2022-11-25T03:10:00.364Z,0.0
2022-11-25T03:15:00.676Z,0.0
2022-11-25T03:20:00.634Z,0.0
2022-11-25T03:25:00.283Z,0.0
2022-11-25T03:30:00.333Z,0.0
2022-11-25T03:35:00.306Z,0.0
2022-11-25T03:40:00.366Z,0.0
2022-11-25T03:45:00.327Z,0.0
2022-11-25T03:50:00.357Z,0.0
2022-11-25T03:55:00.305Z,0.0
2022-11-25T04:00:00.353Z,0.0
2022-11-25T04:05:00.288Z,5.8
2022-11-25T04:10:00.331Z,0.0
2022-11-25T04:15:00.394Z,0.0
2022-11-25T04:20:00.340Z,0.0
2022-11-25T04:25:00.326Z,2.5
2022-11-25T04:30:00.398Z,0.0
2022-11-25T04:35:00.324Z,1.8
2022-11-25T04:40:00.369Z,0.0
2022-11-25T04:45:23.798Z,0.0
2022-11-25T04:50:00.320Z,0.0
2022-11-25T04:55:00.318Z,0.0
2022-11-25T05:00:00.369Z,1.8
2022-11-25T05:05:00.283Z,0.0
2022-11-25T05:10:00.314Z,0.0
2022-11-25T05:15:00.328Z,0.0
2022-11-25T05:20:00.354Z,0.0
2022-11-25T05:25:00.301Z,0.0
2022-11-25T05:30:00.346Z,0.0
2022-11-25T05:35:00.430Z,0.0
2022-11-25T05:40:00.320Z,0.0
2022-11-25T05:45:00.342Z,0.0
2022-11-25T05:50:00.342Z,0.0
2022-11-25T05:55:00.432Z,0.0
2022-11-25T06:00:00.399Z,2.2
2022-11-25T06:05:00.308Z,2.5
2022-11-25T06:10:03.808Z,0.0
2022-11-25T06:15:00.354Z,2.9
2022-11-25T06:20:00.354Z,0.0
2022-11-25T06:25:04.425Z,3.6
2022-11-25T06:30:00.395Z,0.0
2022-11-25T06:35:00.350Z,0.0
2022-11-25T06:40:00.375Z,0.0
2022-11-25T06:45:00.457Z,0.0
2022-11-25T06:50:00.384Z,0.0
2022-11-25T06:55:00.334Z,0.0
2022-11-25T07:00:00.396Z,0.0
2022-11-25T07:05:00.373Z,0.0
2022-11-25T07:10:00.434Z,0.0
2022-11-25T07:15:00.307Z,0.0
2022-11-25T07:20:00.382Z,0.0
2022-11-25T07:25:00.310Z,0.0
2022-11-25T07:31:09.736Z,0.0
2022-11-25T07:35:00.315Z,2.5
2022-11-25T07:40:00.485Z,2.2
2022-11-25T07:45:00.324Z,4.3
2022-11-25T07:50:00.315Z,0.0
2022-11-25T07:55:00.426Z,2.9
2022-11-25T08:00:00.358Z,1.4
2022-11-25T08:05:00.315Z,2.9
2022-11-25T08:10:00.338Z,0.0
2022-11-25T08:15:00.328Z,2.5
2022-11-25T08:20:00.336Z,2.5
2022-11-25T08:25:00.342Z,0.0
2022-11-25T08:30:00.367Z,2.9
2022-11-25T08:35:00.318Z,5.0
2022-11-25T08:40:01.829Z,4.0
2022-11-25T08:45:00.422Z,6.8
2022-11-25T08:50:00.315Z,2.2
2022-11-25T08:55:00.411Z,0.0
2022-11-25T09:00:00.456Z,1.4
2022-11-25T09:05:00.340Z,2.2
2022-11-25T09:10:00.384Z,6.1
2022-11-25T09:15:00.410Z,4.0
2022-11-25T09:20:00.385Z,7.2
2022-11-25T09:25:00.356Z,0.0
2022-11-25T09:30:00.349Z,3.2
2022-11-25T09:35:00.330Z,1.8
2022-11-25T09:40:00.399Z,2.2
2022-11-25T09:45:00.338Z,2.5
2022-11-25T09:50:00.514Z,6.1
2022-11-25T09:55:00.405Z,0.0
2022-11-25T10:00:00.463Z,3.6
2022-11-25T10:05:00.326Z,4.7
2022-11-25T10:10:00.422Z,3.6
2022-11-25T10:15:00.362Z,3.2
2022-11-25T10:20:00.386Z,1.8
2022-11-25T10:25:00.359Z,6.1
2022-11-25T10:30:00.368Z,1.4
2022-11-25T10:35:00.398Z,1.8
2022-11-25T10:40:00.349Z,4.0
2022-11-25T10:45:00.364Z,2.2
2022-11-25T10:50:00.323Z,3.2
2022-11-25T10:55:00.400Z,5.0
2022-11-25T11:00:00.460Z,3.2
2022-11-25T11:05:00.628Z,6.5
2022-11-25T11:10:00.355Z,6.1
2022-11-25T11:15:00.401Z,6.5
2022-11-25T11:20:00.345Z,6.1
2022-11-25T11:25:00.854Z,9.7
2022-11-25T11:30:00.354Z,8.3
2022-11-25T11:35:00.383Z,10.8
2022-11-25T11:40:00.515Z,7.9
2022-11-25T11:45:00.369Z,7.2
2022-11-25T11:50:00.494Z,10.4
2022-11-25T11:55:00.331Z,11.2
2022-11-25T12:00:00.371Z,11.9
2022-11-25T12:05:00.798Z,9.4
2022-11-25T12:10:00.345Z,8.3
2022-11-25T12:15:00.588Z,7.9
2022-11-25T12:20:00.325Z,7.6
2022-11-25T12:25:00.355Z,7.9
2022-11-25T12:30:00.401Z,8.3
2022-11-25T12:35:00.644Z,6.5
2022-11-25T12:40:00.327Z,4.0
2022-11-25T12:45:00.408Z,6.1
2022-11-25T12:50:00.376Z,0.0
2022-11-25T12:55:00.315Z,2.5
2022-11-25T13:00:40.247Z,0.0
2022-11-25T13:05:39.362Z,3.6
2022-11-25T13:10:00.424Z,1.4
2022-11-25T13:15:02.231Z,3.6
2022-11-25T13:20:00.483Z,5.8
2022-11-25T13:25:00.309Z,8.6
2022-11-25T13:30:00.485Z,8.3
2022-11-25T13:35:00.495Z,4.0
2022-11-25T13:40:00.322Z,3.6
2022-11-25T13:45:00.453Z,5.0
2022-11-25T13:50:00.345Z,6.1
2022-11-25T13:55:00.332Z,3.2
2022-11-25T14:00:00.380Z,1.4
2022-11-25T14:05:00.366Z,2.2
2022-11-25T14:10:00.335Z,3.6
2022-11-25T14:15:00.418Z,4.7
2022-11-25T14:20:01.904Z,5.0
2022-11-25T14:25:00.331Z,2.9
2022-11-25T14:30:00.374Z,6.5
2022-11-25T14:35:00.311Z,0.0
2022-11-25T14:40:00.329Z,1.8
2022-11-25T14:45:00.421Z,2.5
2022-11-25T14:50:34.553Z,3.6
2022-11-25T14:55:00.303Z,0.0
2022-11-25T15:00:00.373Z,2.9
2022-11-25T15:05:00.351Z,4.0
2022-11-25T15:10:00.363Z,4.3
2022-11-25T15:15:00.567Z,0.0
2022-11-25T15:20:00.371Z,1.4
2022-11-25T15:25:00.413Z,4.0
2022-11-25T15:30:00.449Z,1.4
2022-11-25T15:35:00.332Z,2.2
2022-11-25T15:40:00.578Z,1.8
2022-11-25T15:45:08.983Z,1.8
2022-11-25T15:50:00.743Z,0.0
2022-11-25T15:55:00.315Z,2.2
2022-11-25T16:00:00.720Z,2.2
2022-11-25T16:05:05.124Z,6.8
2022-11-25T16:10:00.440Z,6.1
2022-11-25T16:15:00.525Z,4.0
2022-11-25T16:20:00.578Z,0.0
2022-11-25T16:25:03.240Z,0.0
2022-11-25T16:30:00.402Z,0.0
2022-11-25T16:35:00.412Z,0.0
2022-11-25T16:40:00.498Z,0.0
2022-11-25T16:45:00.744Z,4.0
2022-11-25T16:50:00.499Z,0.0
2022-11-25T16:55:00.417Z,0.0
2022-11-25T17:00:00.349Z,3.2
2022-11-25T17:05:00.335Z,0.0
2022-11-25T17:10:00.376Z,0.0
2022-11-25T17:15:01.370Z,0.0
2022-11-25T17:20:00.330Z,0.0
2022-11-25T17:25:00.530Z,0.0
2022-11-25T17:30:00.363Z,2.2
2022-11-25T17:35:00.336Z,0.0
2022-11-25T17:40:00.387Z,0.0
2022-11-25T17:45:00.398Z,0.0
2022-11-25T17:50:00.367Z,0.0
2022-11-25T17:55:00.451Z,0.0
2022-11-25T18:00:00.376Z,0.0
2022-11-25T18:05:00.354Z,0.0
2022-11-25T18:10:00.597Z,0.0
2022-11-25T18:15:00.820Z,0.0
2022-11-25T18:20:00.429Z,0.0
2022-11-25T18:25:09.578Z,0.0
2022-11-25T18:30:00.355Z,0.0
2022-11-25T18:35:00.363Z,0.0
2022-11-25T18:40:00.343Z,0.0
2022-11-25T18:45:00.409Z,0.0
2022-11-25T18:50:00.395Z,0.0
2022-11-25T18:55:00.381Z,0.0
2022-11-25T19:00:32.553Z,0.0
2022-11-25T19:05:00.288Z,0.0
2022-11-25T19:10:00.445Z,0.0
2022-11-25T19:15:00.348Z,0.0
2022-11-25T19:20:00.342Z,0.0
2022-11-25T19:25:00.344Z,0.0
2022-11-25T19:30:00.416Z,0.0
2022-11-25T19:35:00.402Z,0.0
2022-11-25T19:40:00.371Z,0.0
2022-11-25T19:45:00.317Z,0.0
2022-11-25T19:50:00.353Z,0.0
2022-11-25T19:55:00.362Z,0.0
2022-11-25T20:00:00.348Z,0.0
2022-11-25T20:05:00.562Z,0.0
2022-11-25T20:10:00.401Z,0.0
2022-11-25T20:15:00.360Z,0.0
2022-11-25T20:20:00.382Z,0.0
2022-11-25T20:25:00.298Z,0.0
2022-11-25T20:30:00.370Z,0.0
2022-11-25T20:35:00.336Z,0.0
2022-11-25T20:40:00.369Z,0.0
2022-11-25T20:45:00.353Z,0.0
2022-11-25T20:50:00.338Z,0.0
2022-11-25T20:55:00.351Z,0.0
2022-11-25T21:00:00.368Z,0.0
2022-11-25T21:05:00.305Z,0.0
2022-11-25T21:10:00.372Z,0.0
2022-11-25T21:15:00.453Z,0.0
2022-11-25T21:20:00.560Z,0.0
2022-11-25T21:25:00.338Z,0.0
2022-11-25T21:30:00.375Z,0.0
2022-11-25T21:35:00.420Z,0.0
2022-11-25T21:40:00.351Z,0.0
2022-11-25T21:45:00.673Z,0.0
2022-11-25T21:50:00.975Z,0.0
2022-11-25T21:55:00.563Z,0.0
2022-11-25T22:00:00.403Z,0.0
2022-11-25T22:05:00.294Z,0.0
2022-11-25T22:10:00.325Z,0.0
2022-11-25T22:15:00.330Z,0.0
2022-11-25T22:20:00.354Z,0.0
2022-11-25T22:25:00.306Z,0.0
2022-11-25T22:30:00.401Z,0.0
2022-11-25T22:35:00.376Z,0.0
2022-11-25T22:40:00.342Z,0.0
2022-11-25T22:45:00.394Z,5.0
2022-11-25T22:50:00.326Z,5.4
2022-11-25T22:55:00.377Z,2.2
2022-11-25T23:00:00.618Z,1.4
2022-11-25T23:05:01.003Z,6.5
2022-11-25T23:10:00.335Z,2.5
2022-11-25T23:15:00.322Z,2.5
2022-11-25T23:20:00.344Z,2.5
2022-11-25T23:25:00.337Z,3.2
2022-11-25T23:30:00.339Z,0.0
2022-11-25T23:35:00.302Z,1.4
2022-11-25T23:40:00.335Z,2.9
2022-11-25T23:45:00.312Z,4.7
2022-11-25T23:50:00.472Z,4.7
2022-11-25T23:55:00.349Z,6.5
